createdAt,value
2023-05-09T00:00:50.686Z,614.00
2023-05-09T00:01:50.714Z,615.00
2023-05-09T00:02:50.740Z,613.00
2023-05-09T00:03:50.806Z,615.00
2023-05-09T00:04:50.910Z,613.00
2023-05-09T00:05:50.836Z,613.00
2023-05-09T00:06:50.871Z,614.00
2023-05-09T00:07:50.899Z,615.00
2023-05-09T00:08:50.953Z,616.00
2023-05-09T00:09:50.995Z,617.00
2023-05-09T00:10:51.054Z,619.00
2023-05-09T00:11:51.083Z,618.00
2023-05-09T00:12:51.156Z,618.00
2023-05-09T00:13:52.081Z,615.00
2023-05-09T00:14:51.295Z,614.00
2023-05-09T00:15:51.239Z,617.00
2023-05-09T00:16:51.347Z,618.00
2023-05-09T00:17:51.348Z,619.00
2023-05-09T00:18:51.385Z,616.00
2023-05-09T00:19:51.391Z,618.00
2023-05-09T00:20:51.425Z,621.00
2023-05-09T00:21:51.527Z,618.00
2023-05-09T00:22:51.527Z,619.00
2023-05-09T00:23:51.574Z,615.00
2023-05-09T00:24:51.576Z,613.00
2023-05-09T00:25:51.645Z,614.00
2023-05-09T00:26:51.689Z,617.00
2023-05-09T00:27:51.712Z,617.00
2023-05-09T00:28:51.750Z,615.00
2023-05-09T00:29:51.792Z,614.00
2023-05-09T00:30:51.952Z,615.00
2023-05-09T00:31:51.889Z,616.00
2023-05-09T00:32:51.980Z,615.00
2023-05-09T00:33:51.962Z,617.00
2023-05-09T00:34:51.966Z,618.00
2023-05-09T00:35:51.993Z,620.00
2023-05-09T00:36:52.027Z,619.00
2023-05-09T00:37:52.157Z,618.00
2023-05-09T00:38:52.105Z,617.00
2023-05-09T00:39:52.128Z,618.00
2023-05-09T00:40:52.204Z,620.00
2023-05-09T00:41:52.252Z,620.00
2023-05-09T00:42:52.234Z,618.00
2023-05-09T00:43:52.347Z,618.00
2023-05-09T00:44:52.318Z,616.00
2023-05-09T00:45:54.243Z,613.00
2023-05-09T00:46:52.448Z,611.00
2023-05-09T00:47:52.593Z,609.00
2023-05-09T00:48:52.569Z,610.00
2023-05-09T00:49:52.547Z,607.00
2023-05-09T00:50:52.653Z,610.00
2023-05-09T00:51:52.650Z,611.00
2023-05-09T00:52:52.669Z,612.00
2023-05-09T00:53:52.733Z,608.00
2023-05-09T00:54:52.772Z,607.00
2023-05-09T00:55:52.836Z,605.00
2023-05-09T00:56:52.940Z,605.00
2023-05-09T00:57:52.917Z,604.00
2023-05-09T00:58:52.929Z,606.00
2023-05-09T00:59:53.005Z,605.00
2023-05-09T01:00:53.071Z,605.00
2023-05-09T01:01:53.361Z,608.00
2023-05-09T01:02:53.352Z,610.00
2023-05-09T01:03:53.287Z,608.00
2023-05-09T01:04:53.249Z,605.00
2023-05-09T01:05:53.326Z,605.00
2023-05-09T01:06:53.346Z,605.00
2023-05-09T01:07:53.375Z,606.00
2023-05-09T01:08:53.604Z,606.00
2023-05-09T01:09:53.545Z,606.00
2023-05-09T01:10:53.525Z,606.00
2023-05-09T01:11:53.582Z,607.00
2023-05-09T01:12:53.738Z,606.00
2023-05-09T01:13:53.671Z,608.00
2023-05-09T01:14:53.738Z,605.00
2023-05-09T01:15:53.802Z,605.00
2023-05-09T01:16:53.820Z,603.00
2023-05-09T01:17:53.975Z,604.00
2023-05-09T01:18:53.877Z,604.00
2023-05-09T01:19:53.906Z,606.00
2023-05-09T01:20:53.956Z,604.00
2023-05-09T01:21:54.131Z,606.00
2023-05-09T01:22:54.070Z,605.00
2023-05-09T01:23:54.114Z,605.00
2023-05-09T01:24:54.120Z,604.00
2023-05-09T01:25:54.185Z,604.00
2023-05-09T01:26:54.231Z,603.00
2023-05-09T01:27:54.251Z,605.00
2023-05-09T01:28:54.321Z,607.00
2023-05-09T01:29:54.362Z,609.00
2023-05-09T01:30:54.426Z,608.00
2023-05-09T01:31:54.466Z,608.00
2023-05-09T01:32:54.509Z,606.00
2023-05-09T01:33:54.635Z,603.00
2023-05-09T01:34:54.562Z,607.00
2023-05-09T01:35:54.632Z,606.00
2023-05-09T01:36:54.706Z,605.00
2023-05-09T01:37:54.752Z,603.00
2023-05-09T01:38:54.766Z,601.00
2023-05-09T01:39:54.822Z,603.00
2023-05-09T01:40:54.858Z,602.00
2023-05-09T01:41:54.968Z,601.00
2023-05-09T01:42:54.961Z,602.00
2023-05-09T01:43:55.075Z,602.00
2023-05-09T01:44:55.045Z,606.00
2023-05-09T01:45:55.099Z,603.00
2023-05-09T01:46:55.215Z,599.00
2023-05-09T01:47:55.232Z,600.00
2023-05-09T01:48:55.253Z,602.00
2023-05-09T01:49:55.416Z,604.00
2023-05-09T01:50:55.344Z,605.00
2023-05-09T01:51:55.388Z,604.00
2023-05-09T01:52:55.414Z,603.00
2023-05-09T01:53:55.460Z,605.00
2023-05-09T01:54:55.466Z,604.00
2023-05-09T01:55:55.522Z,603.00
2023-05-09T01:56:55.626Z,602.00
2023-05-09T01:57:55.611Z,603.00
2023-05-09T01:58:55.668Z,604.00
2023-05-09T01:59:55.718Z,603.00
2023-05-09T02:00:55.801Z,605.00
2023-05-09T02:01:55.816Z,605.00
2023-05-09T02:02:56.051Z,604.00
2023-05-09T02:03:55.861Z,603.00
2023-05-09T02:04:55.996Z,604.00
2023-05-09T02:05:56.036Z,604.00
2023-05-09T02:06:56.018Z,606.00
2023-05-09T02:07:56.029Z,606.00
2023-05-09T02:08:56.102Z,608.00
2023-05-09T02:09:56.126Z,608.00
2023-05-09T02:10:56.268Z,609.00
2023-05-09T02:11:56.226Z,607.00
2023-05-09T02:12:56.290Z,606.00
2023-05-09T02:13:56.284Z,609.00
2023-05-09T02:14:56.301Z,609.00
2023-05-09T02:15:56.398Z,607.00
2023-05-09T02:16:56.527Z,607.00
2023-05-09T02:17:56.500Z,605.00
2023-05-09T02:18:56.504Z,607.00
2023-05-09T02:19:56.552Z,608.00
2023-05-09T02:20:56.630Z,606.00
2023-05-09T02:21:56.740Z,607.00
2023-05-09T02:22:56.695Z,606.00
2023-05-09T02:23:56.711Z,604.00
2023-05-09T02:24:56.762Z,604.00
2023-05-09T02:25:56.832Z,603.00
2023-05-09T02:26:56.925Z,603.00
2023-05-09T02:27:56.938Z,604.00
2023-05-09T02:28:56.941Z,604.00
2023-05-09T02:29:56.979Z,604.00
2023-05-09T02:30:57.050Z,601.00
2023-05-09T02:31:57.163Z,603.00
2023-05-09T02:32:57.150Z,607.00
2023-05-09T02:33:57.185Z,608.00
2023-05-09T02:34:57.226Z,606.00
2023-05-09T02:35:57.295Z,609.00
2023-05-09T02:36:57.351Z,609.00
2023-05-09T02:37:57.404Z,608.00
2023-05-09T02:38:57.416Z,604.00
2023-05-09T02:39:57.451Z,603.00
2023-05-09T02:40:57.511Z,604.00
2023-05-09T02:41:57.555Z,605.00
2023-05-09T02:42:57.584Z,606.00
2023-05-09T02:43:57.675Z,609.00
2023-05-09T02:44:57.662Z,608.00
2023-05-09T02:45:57.756Z,606.00
2023-05-09T02:46:57.752Z,603.00
2023-05-09T02:47:57.818Z,603.00
2023-05-09T02:48:57.874Z,601.00
2023-05-09T02:49:57.900Z,601.00
2023-05-09T02:50:57.923Z,603.00
2023-05-09T02:51:57.993Z,602.00
2023-05-09T02:52:58.018Z,602.00
2023-05-09T02:53:58.165Z,599.00
2023-05-09T02:54:58.071Z,600.00
2023-05-09T02:55:58.103Z,602.00
2023-05-09T02:56:58.156Z,601.00
2023-05-09T02:58:11.972Z,603.00
2023-05-09T02:58:59.203Z,603.00
2023-05-09T02:59:58.190Z,603.00
2023-05-09T03:00:58.167Z,603.00
2023-05-09T03:01:58.175Z,602.00
2023-05-09T03:02:58.224Z,602.00
2023-05-09T03:03:58.189Z,601.00
2023-05-09T03:04:58.134Z,603.00
2023-05-09T03:05:58.120Z,606.00
2023-05-09T03:06:58.112Z,604.00
2023-05-09T03:07:58.139Z,604.00
2023-05-09T03:08:58.217Z,604.00
2023-05-09T03:09:58.170Z,606.00
2023-05-09T03:10:58.133Z,605.00
2023-05-09T03:11:58.201Z,607.00
2023-05-09T03:12:58.238Z,606.00
2023-05-09T03:13:58.285Z,607.00
2023-05-09T03:14:58.332Z,608.00
2023-05-09T03:15:58.412Z,607.00
2023-05-09T03:16:58.447Z,607.00
2023-05-09T03:17:58.522Z,607.00
2023-05-09T03:18:58.547Z,605.00
2023-05-09T03:19:58.572Z,606.00
2023-05-09T03:20:58.651Z,606.00
2023-05-09T03:21:58.683Z,607.00
2023-05-09T03:22:58.775Z,607.00
2023-05-09T03:23:58.809Z,608.00
2023-05-09T03:24:58.805Z,609.00
2023-05-09T03:25:58.962Z,609.00
2023-05-09T03:26:58.936Z,611.00
2023-05-09T03:27:59.194Z,612.00
2023-05-09T03:28:59.031Z,609.00
2023-05-09T03:29:59.048Z,612.00
2023-05-09T03:30:59.141Z,607.00
2023-05-09T03:31:59.134Z,605.00
2023-05-09T03:32:59.254Z,604.00
2023-05-09T03:33:59.244Z,606.00
2023-05-09T03:34:59.297Z,606.00
2023-05-09T03:35:59.334Z,604.00
2023-05-09T03:36:59.346Z,601.00
2023-05-09T03:37:59.421Z,600.00
2023-05-09T03:38:59.479Z,601.00
2023-05-09T03:39:59.516Z,603.00
2023-05-09T03:40:59.556Z,602.00
2023-05-09T03:41:59.683Z,602.00
2023-05-09T03:42:59.663Z,600.00
2023-05-09T03:43:59.716Z,599.00
2023-05-09T03:44:59.757Z,598.00
2023-05-09T03:45:59.820Z,598.00
2023-05-09T03:46:59.952Z,599.00
2023-05-09T03:47:59.902Z,597.00
2023-05-09T03:48:59.910Z,597.00
2023-05-09T03:49:59.935Z,597.00
2023-05-09T03:51:00.027Z,599.00
2023-05-09T03:52:00.063Z,599.00
2023-05-09T03:53:00.121Z,598.00
2023-05-09T03:54:00.206Z,598.00
2023-05-09T03:55:00.189Z,596.00
2023-05-09T03:56:00.269Z,597.00
2023-05-09T03:57:00.273Z,596.00
2023-05-09T03:58:00.423Z,597.00
2023-05-09T03:59:00.358Z,596.00
2023-05-09T04:00:00.441Z,599.00
2023-05-09T04:01:00.466Z,599.00
2023-05-09T04:02:00.513Z,599.00
2023-05-09T04:03:00.624Z,601.00
2023-05-09T04:04:00.619Z,600.00
2023-05-09T04:05:00.583Z,599.00
2023-05-09T04:06:02.202Z,597.00
2023-05-09T04:07:00.659Z,597.00
2023-05-09T04:08:00.680Z,596.00
2023-05-09T04:09:00.715Z,597.00
2023-05-09T04:10:00.783Z,595.00
2023-05-09T04:11:00.793Z,595.00
2023-05-09T04:12:00.854Z,596.00
2023-05-09T04:13:00.913Z,596.00
2023-05-09T04:14:01.005Z,595.00
2023-05-09T04:15:00.967Z,594.00
2023-05-09T04:16:01.047Z,594.00
2023-05-09T04:17:01.207Z,593.00
2023-05-09T04:18:01.132Z,594.00
2023-05-09T04:19:01.152Z,596.00
2023-05-09T04:20:01.216Z,599.00
2023-05-09T04:21:01.215Z,602.00
2023-05-09T04:22:01.255Z,604.00
2023-05-09T04:23:01.320Z,605.00
2023-05-09T04:24:01.360Z,604.00
2023-05-09T04:25:01.402Z,604.00
2023-05-09T04:26:01.475Z,604.00
2023-05-09T04:27:01.502Z,603.00
2023-05-09T04:28:01.565Z,604.00
2023-05-09T04:29:01.643Z,602.00
2023-05-09T04:30:01.760Z,603.00
2023-05-09T04:31:01.803Z,602.00
2023-05-09T04:32:01.943Z,602.00
2023-05-09T04:33:01.856Z,602.00
2023-05-09T04:34:01.951Z,602.00
2023-05-09T04:35:01.990Z,600.00
2023-05-09T04:36:02.033Z,601.00
2023-05-09T04:37:02.076Z,601.00
2023-05-09T04:38:02.120Z,601.00
2023-05-09T04:39:02.204Z,602.00
2023-05-09T04:40:02.206Z,601.00
2023-05-09T04:41:02.388Z,600.00
2023-05-09T04:42:02.346Z,598.00
2023-05-09T04:43:02.414Z,595.00
2023-05-09T04:44:02.462Z,595.00
2023-05-09T04:45:02.471Z,592.00
2023-05-09T04:46:02.680Z,592.00
2023-05-09T04:47:02.607Z,592.00
2023-05-09T04:48:02.676Z,590.00
2023-05-09T04:49:02.688Z,587.00
2023-05-09T04:50:02.706Z,588.00
2023-05-09T04:51:02.718Z,587.00
2023-05-09T04:52:02.798Z,586.00
2023-05-09T04:53:02.806Z,587.00
2023-05-09T04:54:02.894Z,588.00
2023-05-09T04:55:02.914Z,590.00
2023-05-09T04:56:02.958Z,590.00
2023-05-09T04:57:13.703Z,592.00
2023-05-09T04:58:03.963Z,593.00
2023-05-09T04:59:03.230Z,597.00
2023-05-09T05:00:02.953Z,599.00
2023-05-09T05:01:02.972Z,598.00
2023-05-09T05:02:03.245Z,597.00
2023-05-09T05:03:02.972Z,594.00
2023-05-09T05:04:02.920Z,595.00
2023-05-09T05:05:17.547Z,593.00
2023-05-09T05:06:03.920Z,594.00
2023-05-09T05:07:02.897Z,594.00
2023-05-09T05:08:02.876Z,594.00
2023-05-09T05:09:02.906Z,592.00
2023-05-09T05:10:02.877Z,591.00
2023-05-09T05:11:03.039Z,592.00
2023-05-09T05:12:04.932Z,591.00
2023-05-09T05:13:02.911Z,590.00
2023-05-09T05:14:02.852Z,590.00
2023-05-09T05:15:02.881Z,589.00
2023-05-09T05:16:02.883Z,588.00
2023-05-09T05:17:02.862Z,587.00
2023-05-09T05:18:03.005Z,582.00
2023-05-09T05:19:02.843Z,580.00
2023-05-09T05:20:02.812Z,581.00
2023-05-09T05:21:02.828Z,579.00
2023-05-09T05:22:02.784Z,578.00
2023-05-09T05:23:02.901Z,578.00
2023-05-09T05:24:02.827Z,576.00
2023-05-09T05:25:02.780Z,575.00
2023-05-09T05:26:03.717Z,574.00
2023-05-09T05:27:03.753Z,572.00
2023-05-09T05:28:02.758Z,570.00
2023-05-09T05:29:02.766Z,570.00
2023-05-09T05:30:02.757Z,572.00
2023-05-09T05:31:02.754Z,575.00
2023-05-09T05:32:02.729Z,641.00
2023-05-09T05:33:02.851Z,638.00
2023-05-09T05:34:02.866Z,889.00
2023-05-09T05:35:02.763Z,855.00
2023-05-09T05:36:02.855Z,778.00
2023-05-09T05:37:02.680Z,768.00
2023-05-09T05:38:02.672Z,769.00
2023-05-09T05:39:02.743Z,775.00
2023-05-09T05:40:02.672Z,778.00
2023-05-09T05:41:02.738Z,783.00
2023-05-09T05:42:02.659Z,785.00
2023-05-09T05:43:02.732Z,765.00
2023-05-09T05:44:02.647Z,749.00
2023-05-09T05:45:02.736Z,748.00
2023-05-09T05:46:02.671Z,739.00
2023-05-09T05:47:02.656Z,733.00
2023-05-09T05:48:02.789Z,728.00
2023-05-09T05:49:02.613Z,731.00
2023-05-09T05:50:02.772Z,734.00
2023-05-09T05:51:02.639Z,735.00
2023-05-09T05:52:02.709Z,734.00
2023-05-09T05:53:02.789Z,738.00
2023-05-09T05:54:02.807Z,739.00
2023-05-09T05:55:02.857Z,738.00
2023-05-09T05:56:02.903Z,742.00
2023-05-09T05:57:02.946Z,745.00
2023-05-09T05:58:02.982Z,744.00
2023-05-09T05:59:03.080Z,742.00
2023-05-09T06:00:03.145Z,735.00
2023-05-09T06:01:03.157Z,739.00
2023-05-09T06:02:03.297Z,737.00
2023-05-09T06:03:03.841Z,738.00
2023-05-09T06:04:03.388Z,731.00
2023-05-09T06:05:03.336Z,727.00
2023-05-09T06:06:03.390Z,721.00
2023-05-09T06:07:03.450Z,716.00
2023-05-09T06:08:03.528Z,714.00
2023-05-09T06:09:03.553Z,731.00
2023-05-09T06:10:03.611Z,729.00
2023-05-09T06:11:04.231Z,723.00
2023-05-09T06:12:03.715Z,719.00
2023-05-09T06:13:04.018Z,723.00
2023-05-09T06:14:03.809Z,720.00
2023-05-09T06:15:03.893Z,720.00
2023-05-09T06:16:14.919Z,724.00
2023-05-09T06:17:05.013Z,724.00
2023-05-09T06:18:03.979Z,724.00
2023-05-09T06:19:03.898Z,722.00
2023-05-09T06:20:03.877Z,718.00
2023-05-09T06:21:03.873Z,715.00
2023-05-09T06:22:03.960Z,715.00
2023-05-09T06:23:03.933Z,819.00
2023-05-09T06:24:10.268Z,881.00
2023-05-09T06:25:04.950Z,834.00
2023-05-09T06:26:03.867Z,769.00
2023-05-09T06:28:03.870Z,759.00
2023-05-09T06:29:03.850Z,749.00
2023-05-09T06:30:14.175Z,768.00
2023-05-09T06:31:04.826Z,778.00
2023-05-09T06:32:03.800Z,773.00
2023-05-09T06:33:04.291Z,767.00
2023-05-09T06:34:03.803Z,762.00
2023-05-09T06:35:03.804Z,760.00
2023-05-09T06:36:03.793Z,761.00
2023-05-09T06:37:03.829Z,764.00
2023-05-09T06:38:04.844Z,757.00
2023-05-09T06:39:04.254Z,742.00
2023-05-09T06:40:03.789Z,736.00
2023-05-09T06:41:03.874Z,736.00
2023-05-09T06:42:03.830Z,741.00
2023-05-09T06:43:03.894Z,744.00
2023-05-09T06:44:03.958Z,746.00
2023-05-09T06:45:03.988Z,744.00
2023-05-09T06:46:04.066Z,746.00
2023-05-09T06:47:04.073Z,746.00
2023-05-09T06:48:04.113Z,747.00
2023-05-09T06:49:04.213Z,757.00
2023-05-09T06:50:04.226Z,758.00
2023-05-09T06:51:04.406Z,756.00
2023-05-09T06:52:04.302Z,761.00
2023-05-09T06:53:04.386Z,766.00
2023-05-09T06:54:04.534Z,773.00
2023-05-09T06:55:04.479Z,776.00
2023-05-09T06:56:04.526Z,783.00
2023-05-09T06:57:04.577Z,789.00
2023-05-09T06:58:04.710Z,796.00
2023-05-09T06:59:04.703Z,801.00
2023-05-09T07:00:04.821Z,814.00
2023-05-09T07:01:04.790Z,830.00
2023-05-09T07:02:04.882Z,840.00
2023-05-09T07:03:05.049Z,845.00
2023-05-09T07:04:05.762Z,866.00
2023-05-09T07:05:05.178Z,867.00
2023-05-09T07:06:05.063Z,861.00
2023-05-09T07:07:05.104Z,858.00
2023-05-09T07:08:05.165Z,856.00
2023-05-09T07:09:05.364Z,856.00
2023-05-09T07:10:11.483Z,860.00
2023-05-09T07:11:06.289Z,877.00
2023-05-09T07:12:05.280Z,872.00
2023-05-09T07:13:05.304Z,872.00
2023-05-09T07:14:05.274Z,870.00
2023-05-09T07:15:05.253Z,875.00
2023-05-09T07:16:05.278Z,872.00
2023-05-09T07:17:21.346Z,873.00
2023-05-09T07:18:06.260Z,894.00
2023-05-09T07:19:05.221Z,896.00
2023-05-09T07:20:05.238Z,894.00
2023-05-09T07:21:05.161Z,859.00
2023-05-09T07:22:05.191Z,865.00
2023-05-09T07:23:05.198Z,899.00
2023-05-09T07:24:05.184Z,888.00
2023-05-09T07:25:05.236Z,865.00
2023-05-09T07:26:05.245Z,855.00
2023-05-09T07:27:05.162Z,849.00
2023-05-09T07:28:05.221Z,848.00
2023-05-09T07:29:05.239Z,842.00
2023-05-09T07:30:05.261Z,836.00
2023-05-09T07:31:05.297Z,835.00
2023-05-09T07:32:05.452Z,844.00
2023-05-09T07:33:05.448Z,854.00
2023-05-09T07:34:05.779Z,882.00
2023-05-09T07:35:05.527Z,1190.00
2023-05-09T07:36:05.503Z,1171.00
2023-05-09T07:37:05.619Z,1169.00
2023-05-09T07:38:05.601Z,1118.00
2023-05-09T07:39:06.015Z,989.00
2023-05-09T07:40:05.656Z,920.00
2023-05-09T07:41:05.631Z,921.00
2023-05-09T07:42:06.343Z,931.00
2023-05-09T07:43:05.727Z,926.00
2023-05-09T07:44:05.777Z,916.00
2023-05-09T07:45:05.773Z,906.00
2023-05-09T07:46:05.939Z,902.00
2023-05-09T07:47:05.897Z,899.00
2023-05-09T07:48:05.936Z,897.00
2023-05-09T07:49:05.975Z,901.00
2023-05-09T07:50:06.018Z,913.00
2023-05-09T07:51:06.097Z,918.00
2023-05-09T07:52:06.177Z,927.00
2023-05-09T07:53:06.323Z,932.00
2023-05-09T07:54:06.347Z,980.00
2023-05-09T07:55:06.215Z,1015.00
2023-05-09T07:56:06.265Z,1026.00
2023-05-09T07:57:06.342Z,1006.00
2023-05-09T07:58:06.444Z,1013.00
2023-05-09T07:59:06.495Z,1005.00
2023-05-09T08:00:06.427Z,1002.00
2023-05-09T08:01:06.502Z,1000.00
2023-05-09T08:02:06.583Z,991.00
2023-05-09T08:03:06.605Z,958.00
2023-05-09T08:04:06.714Z,973.00
2023-05-09T08:05:06.646Z,977.00
2023-05-09T08:06:06.672Z,984.00
2023-05-09T08:07:06.683Z,976.00
2023-05-09T08:08:06.796Z,968.00
2023-05-09T08:09:06.845Z,959.00
2023-05-09T08:10:06.801Z,954.00
2023-05-09T08:11:06.934Z,954.00
2023-05-09T08:12:06.905Z,958.00
2023-05-09T08:13:06.965Z,962.00
2023-05-09T08:14:07.105Z,975.00
2023-05-09T08:15:07.129Z,994.00
2023-05-09T08:16:07.108Z,1050.00
2023-05-09T08:17:07.113Z,1076.00
2023-05-09T08:18:07.280Z,1127.00
2023-05-09T08:19:07.174Z,1147.00
2023-05-09T08:20:07.167Z,1172.00
2023-05-09T08:21:07.224Z,1240.00
2023-05-09T08:22:07.259Z,1109.00
2023-05-09T08:23:07.286Z,1119.00
2023-05-09T08:24:07.824Z,1121.00
2023-05-09T08:25:07.373Z,1113.00
2023-05-09T08:26:07.433Z,1100.00
2023-05-09T08:27:07.504Z,1082.00
2023-05-09T08:28:07.469Z,1074.00
2023-05-09T08:29:07.806Z,1074.00
2023-05-09T08:30:07.595Z,1066.00
2023-05-09T08:31:07.575Z,1060.00
2023-05-09T08:32:10.327Z,1042.00
2023-05-09T08:33:07.697Z,1026.00
2023-05-09T08:34:07.580Z,1013.00
2023-05-09T08:35:07.559Z,1006.00
2023-05-09T08:36:07.583Z,994.00
2023-05-09T08:37:08.305Z,972.00
2023-05-09T08:38:07.574Z,956.00
2023-05-09T08:39:07.857Z,950.00
2023-05-09T08:40:07.834Z,1090.00
2023-05-09T08:41:07.539Z,1159.00
2023-05-09T08:42:07.649Z,1143.00
2023-05-09T08:43:07.492Z,1108.00
2023-05-09T08:44:07.638Z,1009.00
2023-05-09T08:45:07.498Z,979.00
2023-05-09T08:46:07.604Z,964.00
2023-05-09T08:47:07.485Z,956.00
2023-05-09T08:48:07.544Z,949.00
2023-05-09T08:49:07.468Z,936.00
2023-05-09T08:50:08.329Z,936.00
2023-05-09T08:51:07.457Z,929.00
2023-05-09T08:52:07.461Z,910.00
2023-05-09T08:53:07.459Z,892.00
2023-05-09T08:54:09.314Z,886.00
2023-05-09T08:55:07.470Z,882.00
2023-05-09T08:56:07.456Z,874.00
2023-05-09T08:57:07.487Z,856.00
2023-05-09T08:58:07.398Z,852.00
2023-05-09T08:59:07.407Z,858.00
2023-05-09T09:00:07.412Z,856.00
2023-05-09T09:01:07.379Z,855.00
2023-05-09T09:02:07.610Z,827.00
2023-05-09T09:03:07.384Z,816.00
2023-05-09T09:04:07.421Z,805.00
2023-05-09T09:05:08.171Z,811.00
2023-05-09T09:06:08.357Z,823.00
2023-05-09T09:07:07.324Z,822.00
2023-05-09T09:08:07.330Z,813.00
2023-05-09T09:09:07.328Z,816.00
2023-05-09T09:10:07.329Z,816.00
2023-05-09T09:11:07.302Z,805.00
2023-05-09T09:12:07.343Z,789.00
2023-05-09T09:13:07.494Z,779.00
2023-05-09T09:14:07.334Z,758.00
2023-05-09T09:15:07.272Z,754.00
2023-05-09T09:16:07.316Z,747.00
2023-05-09T09:17:07.279Z,756.00
2023-05-09T09:18:07.337Z,748.00
2023-05-09T09:19:07.267Z,735.00
2023-05-09T09:20:07.310Z,733.00
2023-05-09T09:21:07.384Z,737.00
2023-05-09T09:22:07.336Z,753.00
2023-05-09T09:23:07.348Z,791.00
2023-05-09T09:24:07.387Z,797.00
2023-05-09T09:25:07.408Z,805.00
2023-05-09T09:26:07.496Z,815.00
2023-05-09T09:27:07.518Z,814.00
2023-05-09T09:28:07.569Z,813.00
2023-05-09T09:29:07.737Z,818.00
2023-05-09T09:30:07.633Z,816.00
2023-05-09T09:31:07.669Z,816.00
2023-05-09T09:32:07.783Z,821.00
2023-05-09T09:33:07.842Z,824.00
2023-05-09T09:34:08.413Z,863.00
2023-05-09T09:35:07.810Z,929.00
2023-05-09T09:36:07.841Z,955.00
2023-05-09T09:37:07.900Z,970.00
2023-05-09T09:38:07.867Z,962.00
2023-05-09T09:39:07.936Z,936.00
2023-05-09T09:40:07.916Z,925.00
2023-05-09T09:41:07.930Z,919.00
2023-05-09T09:42:07.928Z,907.00
2023-05-09T09:43:07.955Z,834.00
2023-05-09T09:44:08.360Z,825.00
2023-05-09T09:45:08.124Z,755.00
2023-05-09T09:46:08.051Z,739.00
2023-05-09T09:47:08.094Z,736.00
2023-05-09T09:48:08.137Z,734.00
2023-05-09T09:49:08.063Z,737.00
2023-05-09T09:50:08.165Z,742.00
2023-05-09T09:51:08.071Z,751.00
2023-05-09T09:52:08.842Z,758.00
2023-05-09T09:53:08.183Z,755.00
2023-05-09T09:54:08.216Z,752.00
2023-05-09T09:55:08.178Z,748.00
2023-05-09T09:56:08.203Z,742.00
2023-05-09T09:57:08.199Z,743.00
2023-05-09T09:58:08.236Z,747.00
2023-05-09T09:59:08.298Z,749.00
2023-05-09T10:00:08.291Z,755.00
2023-05-09T10:01:08.554Z,766.00
2023-05-09T10:02:08.625Z,781.00
2023-05-09T10:03:08.387Z,791.00
2023-05-09T10:04:08.516Z,793.00
2023-05-09T10:05:08.362Z,799.00
2023-05-09T10:06:08.472Z,800.00
2023-05-09T10:07:08.476Z,794.00
2023-05-09T10:08:08.434Z,790.00
2023-05-09T10:09:08.433Z,785.00
2023-05-09T10:10:08.486Z,790.00
2023-05-09T10:11:08.573Z,775.00
2023-05-09T10:12:08.714Z,740.00
2023-05-09T10:13:08.507Z,728.00
2023-05-09T10:14:10.440Z,725.00
2023-05-09T10:15:08.585Z,728.00
2023-05-09T10:16:08.669Z,731.00
2023-05-09T10:17:08.651Z,741.00
2023-05-09T10:18:08.781Z,745.00
2023-05-09T10:19:09.412Z,744.00
2023-05-09T10:20:08.586Z,747.00
2023-05-09T10:21:08.564Z,763.00
2023-05-09T10:22:08.714Z,768.00
2023-05-09T10:23:08.588Z,774.00
2023-05-09T10:24:08.594Z,775.00
2023-05-09T10:25:08.641Z,789.00
2023-05-09T10:26:08.608Z,803.00
2023-05-09T10:27:08.605Z,900.00
2023-05-09T10:28:08.635Z,992.00
2023-05-09T10:29:08.686Z,1029.00
2023-05-09T10:30:08.660Z,1032.00
2023-05-09T10:31:08.953Z,1032.00
2023-05-09T10:32:08.787Z,1019.00
2023-05-09T10:33:08.789Z,1022.00
2023-05-09T10:34:08.678Z,1022.00
2023-05-09T10:35:08.679Z,1023.00
2023-05-09T10:36:08.683Z,1025.00
2023-05-09T10:37:08.748Z,1028.00
2023-05-09T10:38:08.750Z,1026.00
2023-05-09T10:39:08.685Z,1022.00
2023-05-09T10:40:08.655Z,980.00
2023-05-09T10:41:08.647Z,963.00
2023-05-09T10:42:08.785Z,958.00
2023-05-09T10:43:08.664Z,954.00
2023-05-09T10:44:08.697Z,955.00
2023-05-09T10:45:08.689Z,955.00
2023-05-09T10:46:08.785Z,949.00
2023-05-09T10:47:08.797Z,942.00
2023-05-09T10:48:09.063Z,937.00
2023-05-09T10:49:08.872Z,928.00
2023-05-09T10:50:08.845Z,909.00
2023-05-09T10:51:08.824Z,900.00
2023-05-09T10:52:08.856Z,875.00
2023-05-09T10:53:08.957Z,856.00
2023-05-09T10:54:08.951Z,843.00
2023-05-09T10:55:08.924Z,834.00
2023-05-09T10:56:08.931Z,831.00
2023-05-09T10:57:08.919Z,831.00
2023-05-09T10:58:08.934Z,823.00
2023-05-09T10:59:08.958Z,820.00
2023-05-09T11:00:09.094Z,815.00
2023-05-09T11:01:09.024Z,810.00
2023-05-09T11:02:09.024Z,805.00
2023-05-09T11:03:09.083Z,800.00
2023-05-09T11:04:09.070Z,792.00
2023-05-09T11:05:09.108Z,778.00
2023-05-09T11:06:09.124Z,763.00
2023-05-09T11:07:09.158Z,755.00
2023-05-09T11:08:09.159Z,750.00
2023-05-09T11:09:09.214Z,744.00
2023-05-09T11:10:09.207Z,741.00
2023-05-09T11:11:09.191Z,740.00
2023-05-09T11:12:09.235Z,732.00
2023-05-09T11:13:09.236Z,731.00
2023-05-09T11:14:09.236Z,732.00
2023-05-09T11:15:09.246Z,732.00
2023-05-09T11:16:09.286Z,734.00
2023-05-09T11:17:09.263Z,741.00
2023-05-09T11:18:09.320Z,751.00
2023-05-09T11:19:09.215Z,808.00
2023-05-09T11:20:09.360Z,1003.00
2023-05-09T11:21:09.412Z,1081.00
2023-05-09T11:22:09.327Z,1135.00
2023-05-09T11:23:09.396Z,1118.00
2023-05-09T11:24:09.442Z,982.00
2023-05-09T11:25:09.582Z,947.00
2023-05-09T11:26:09.632Z,877.00
2023-05-09T11:27:09.544Z,848.00
2023-05-09T11:28:09.582Z,796.00
2023-05-09T11:29:09.571Z,743.00
2023-05-09T11:30:09.645Z,728.00
2023-05-09T11:31:09.669Z,715.00
2023-05-09T11:32:09.676Z,679.00
2023-05-09T11:33:09.686Z,661.00
2023-05-09T11:34:09.666Z,653.00
2023-05-09T11:35:09.741Z,646.00
2023-05-09T11:36:09.700Z,633.00
2023-05-09T11:37:09.745Z,634.00
2023-05-09T11:38:09.777Z,631.00
2023-05-09T11:39:09.771Z,630.00
2023-05-09T11:40:09.792Z,629.00
2023-05-09T11:41:09.794Z,630.00
2023-05-09T11:42:09.906Z,630.00
2023-05-09T11:43:09.822Z,631.00
2023-05-09T11:44:09.809Z,633.00
2023-05-09T11:45:09.832Z,634.00
2023-05-09T11:46:09.953Z,636.00
2023-05-09T11:47:09.837Z,636.00
2023-05-09T11:48:10.077Z,636.00
2023-05-09T11:49:12.020Z,634.00
2023-05-09T11:50:09.961Z,634.00
2023-05-09T11:51:09.927Z,633.00
2023-05-09T11:52:09.937Z,635.00
2023-05-09T11:53:09.927Z,638.00
2023-05-09T11:54:09.926Z,639.00
2023-05-09T11:55:12.226Z,638.00
2023-05-09T11:56:09.922Z,638.00
2023-05-09T11:57:09.916Z,639.00
2023-05-09T11:58:09.991Z,642.00
2023-05-09T11:59:09.993Z,641.00
2023-05-09T12:00:09.884Z,636.00
2023-05-09T12:01:11.768Z,631.00
2023-05-09T12:02:09.942Z,602.00
2023-05-09T12:03:09.963Z,591.00
2023-05-09T12:04:09.953Z,585.00
2023-05-09T12:05:09.900Z,567.00
2023-05-09T12:06:09.888Z,553.00
2023-05-09T12:07:09.845Z,540.00
2023-05-09T12:08:09.954Z,525.00
2023-05-09T12:09:09.832Z,521.00
2023-05-09T12:10:09.856Z,509.00
2023-05-09T12:11:10.377Z,504.00
2023-05-09T12:12:09.799Z,504.00
2023-05-09T12:13:09.862Z,502.00
2023-05-09T12:14:09.883Z,500.00
2023-05-09T12:15:09.904Z,500.00
2023-05-09T12:16:09.820Z,498.00
2023-05-09T12:17:09.792Z,556.00
2023-05-09T12:18:09.810Z,779.00
2023-05-09T12:19:09.848Z,716.00
2023-05-09T12:20:09.885Z,711.00
2023-05-09T12:21:09.767Z,627.00
2023-05-09T12:22:09.939Z,606.00
2023-05-09T12:23:09.840Z,582.00
2023-05-09T12:24:09.903Z,564.00
2023-05-09T12:25:09.990Z,556.00
2023-05-09T12:26:10.019Z,545.00
2023-05-09T12:27:10.079Z,537.00
2023-05-09T12:28:10.146Z,532.00